Benezett, PA (15821)

8:29 AM EDT on September 22, 2014 (GMT -0400)
Sterling Run | Change Station
CLOSE
Current Station
Personal Weather Station
Location: Driftwood, PA
Elevation: 932 ft
Nearby Weather Stations

Elev 932 ft 41.42 °N, 78.19 °W | Updated 7 seconds ago

Overcast
Overcast
51.3 °F
Feels Like 51.3 °F
N
2.0
Wind Variable Wind from SSW
Gusts 2.0 mph

Today
High -- | Low -- °F
--% Chance of Precip.
Yesterday
High -- | Low -- °F
Precip. -- in
7:00 AM 7:10 PM
Waning Crescent, 3% visible
Pressure 30.01 in
Visibility 10.0 miles
Clouds Few 1800 ft
Mostly Cloudy 2200 ft
Overcast 3500 ft
Dew Point 48 °F
Humidity 88%
Rainfall 0.00 in
Snow Depth Not available.
UV 0 out of 12
Pollen 3.20 out of 12
Air Quality Not available.
Flu Activity Not available.
SPECI KFIG 221204Z AUTO 29010KT 10SM FEW018 BKN022 OVC035 10/08 A3001 RMK AO2 T01000078

More Conditions Fewer Conditions

Pressure 30.01 in
Visibility 10.0 miles
Clouds Few 1800 ft
Mostly Cloudy 2200 ft
Overcast 3500 ft
Dew Point 48 °F
Humidity 88%
Rainfall 0.00 in
Snow Depth Not available.
UV 0 out of 12
Pollen 3.20 out of 12
Air Quality Not available.
Flu Activity Not available.
SPECI KFIG 221204Z AUTO 29010KT 10SM FEW018 BKN022 OVC035 10/08 A3001 RMK AO2 T01000078

More Conditions Fewer Conditions

10-Day Weather Forecast

Almanac

Astronomy

Sep. 22, 2014 Rise Set
Actual Time 7:00 AM EDT 7:10 PM EDT
Civil Twilight 6:33 AM EDT 7:38 PM EDT
Nautical Twilight 6:00 AM EDT 8:10 PM EDT
Astronomical Twilight 5:27 AM EDT 8:43 PM EDT
Moon 5:26 AM EDT 6:17 PM EDT
Length of Visible Light 13h 04m
Length of Day
12h 09m
Tomorrow will be 2m 44s shorter.
Waning Crescent, 3% of the Moon is Illuminated
Today
Waning Crescent
Sep 24
New
Oct 1
First Quarter
Oct 8
Full
Oct 15
Last Quarter

Today's Extremes

State Highs State Lows

Community

WunderPhotos

Upload Photos

1,755,419 photos uploaded!

WunderBlogs® & News

Nearby

Snow Depth

Station Depth Elevation
No new snow has been reported.

Earthquake Activity

City Distance Mag. Time & Date
No recent earthquake activity has been reported nearby.
Minimum magnitude displayed is 2.5.

Coastal Water Temperatures

Place Temperature
No Stations Reporting

Nearby Weather Stations